sensor_id;sensor_type;location;lat;lon;timestamp;P1;durP1;ratioP1;P2;durP2;ratioP2
15216;SDS011;7711;46.634;14.318;2023-10-13T00:01:55;17.23;;;10.10;;
15216;SDS011;7711;46.634;14.318;2023-10-13T00:04:24;15.30;;;10.33;;
15216;SDS011;7711;46.634;14.318;2023-10-13T00:06:53;16.97;;;10.43;;
15216;SDS011;7711;46.634;14.318;2023-10-13T00:09:21;15.50;;;10.27;;
15216;SDS011;7711;46.634;14.318;2023-10-13T00:11:49;15.20;;;9.73;;
15216;SDS011;7711;46.634;14.318;2023-10-13T00:14:17;15.43;;;10.87;;
15216;SDS011;7711;46.634;14.318;2023-10-13T00:16:46;23.37;;;12.30;;
15216;SDS011;7711;46.634;14.318;2023-10-13T00:19:28;20.33;;;11.67;;
15216;SDS011;7711;46.634;14.318;2023-10-13T00:22:04;15.37;;;11.17;;
15216;SDS011;7711;46.634;14.318;2023-10-13T00:24:38;20.53;;;11.13;;
15216;SDS011;7711;46.634;14.318;2023-10-13T00:27:17;20.43;;;11.73;;
15216;SDS011;7711;46.634;14.318;2023-10-13T00:29:55;16.83;;;10.77;;
15216;SDS011;7711;46.634;14.318;2023-10-13T00:32:36;22.47;;;11.43;;
15216;SDS011;7711;46.634;14.318;2023-10-13T00:35:05;16.67;;;10.73;;
15216;SDS011;7711;46.634;14.318;2023-10-13T00:37:40;19.57;;;11.27;;
15216;SDS011;7711;46.634;14.318;2023-10-13T00:40:10;18.87;;;10.50;;
15216;SDS011;7711;46.634;14.318;2023-10-13T00:43:03;15.27;;;10.67;;
15216;SDS011;7711;46.634;14.318;2023-10-13T00:45:51;18.93;;;10.73;;
15216;SDS011;7711;46.634;14.318;2023-10-13T00:48:22;20.00;;;10.97;;
15216;SDS011;7711;46.634;14.318;2023-10-13T00:50:54;17.43;;;10.63;;
15216;SDS011;7711;46.634;14.318;2023-10-13T00:53:23;20.40;;;11.73;;
15216;SDS011;7711;46.634;14.318;2023-10-13T00:55:54;22.50;;;10.50;;
15216;SDS011;7711;46.634;14.318;2023-10-13T00:58:21;15.87;;;9.70;;
15216;SDS011;7711;46.634;14.318;2023-10-13T01:00:50;16.77;;;10.70;;
15216;SDS011;7711;46.634;14.318;2023-10-13T01:03:22;16.63;;;10.50;;
15216;SDS011;7711;46.634;14.318;2023-10-13T01:05:52;23.30;;;10.20;;
15216;SDS011;7711;46.634;14.318;2023-10-13T01:08:31;17.20;;;10.47;;
15216;SDS011;7711;46.634;14.318;2023-10-13T01:11:03;16.60;;;10.30;;
15216;SDS011;7711;46.634;14.318;2023-10-13T01:13:31;17.53;;;9.77;;
15216;SDS011;7711;46.634;14.318;2023-10-13T01:16:01;14.57;;;9.80;;
15216;SDS011;7711;46.634;14.318;2023-10-13T01:18:27;17.37;;;9.63;;
15216;SDS011;7711;46.634;14.318;2023-10-13T01:20:55;16.13;;;9.07;;
15216;SDS011;7711;46.634;14.318;2023-10-13T01:23:25;19.63;;;9.57;;
15216;SDS011;7711;46.634;14.318;2023-10-13T01:25:54;18.63;;;9.00;;
15216;SDS011;7711;46.634;14.318;2023-10-13T01:28:22;15.90;;;9.63;;
15216;SDS011;7711;46.634;14.318;2023-10-13T01:30:49;14.33;;;10.23;;
15216;SDS011;7711;46.634;14.318;2023-10-13T01:33:17;17.73;;;10.03;;
15216;SDS011;7711;46.634;14.318;2023-10-13T01:35:51;17.37;;;9.37;;
15216;SDS011;7711;46.634;14.318;2023-10-13T01:38:20;15.77;;;9.43;;
15216;SDS011;7711;46.634;14.318;2023-10-13T01:40:47;17.97;;;10.40;;
15216;SDS011;7711;46.634;14.318;2023-10-13T01:43:16;21.87;;;11.30;;
15216;SDS011;7711;46.634;14.318;2023-10-13T01:45:43;15.33;;;9.23;;
15216;SDS011;7711;46.634;14.318;2023-10-13T01:48:14;15.63;;;9.23;;
15216;SDS011;7711;46.634;14.318;2023-10-13T01:50:43;15.90;;;9.63;;
15216;SDS011;7711;46.634;14.318;2023-10-13T01:53:12;21.40;;;10.73;;
15216;SDS011;7711;46.634;14.318;2023-10-13T01:55:42;16.10;;;9.30;;
15216;SDS011;7711;46.634;14.318;2023-10-13T01:58:11;16.77;;;9.20;;
15216;SDS011;7711;46.634;14.318;2023-10-13T02:00:41;15.13;;;8.80;;
15216;SDS011;7711;46.634;14.318;2023-10-13T02:03:08;15.60;;;9.60;;
15216;SDS011;7711;46.634;14.318;2023-10-13T02:05:40;14.57;;;9.70;;
15216;SDS011;7711;46.634;14.318;2023-10-13T02:08:12;14.43;;;9.60;;
15216;SDS011;7711;46.634;14.318;2023-10-13T02:10:43;19.97;;;9.77;;
15216;SDS011;7711;46.634;14.318;2023-10-13T02:13:17;14.33;;;9.23;;
15216;SDS011;7711;46.634;14.318;2023-10-13T02:15:44;15.37;;;9.23;;
15216;SDS011;7711;46.634;14.318;2023-10-13T02:18:13;19.87;;;8.63;;
15216;SDS011;7711;46.634;14.318;2023-10-13T02:20:46;16.57;;;9.40;;
15216;SDS011;7711;46.634;14.318;2023-10-13T02:23:19;15.73;;;8.60;;
15216;SDS011;7711;46.634;14.318;2023-10-13T02:25:46;14.10;;;8.97;;
15216;SDS011;7711;46.634;14.318;2023-10-13T02:28:20;16.87;;;9.23;;
15216;SDS011;7711;46.634;14.318;2023-10-13T02:30:53;16.83;;;9.77;;
15216;SDS011;7711;46.634;14.318;2023-10-13T02:33:22;20.83;;;10.03;;
15216;SDS011;7711;46.634;14.318;2023-10-13T02:35:55;15.57;;;10.10;;
15216;SDS011;7711;46.634;14.318;2023-10-13T02:38:22;16.10;;;10.07;;
15216;SDS011;7711;46.634;14.318;2023-10-13T02:40:53;14.90;;;9.80;;
15216;SDS011;7711;46.634;14.318;2023-10-13T02:43:23;16.70;;;8.93;;
15216;SDS011;7711;46.634;14.318;2023-10-13T02:45:51;14.93;;;9.33;;
15216;SDS011;7711;46.634;14.318;2023-10-13T02:48:23;19.07;;;9.80;;
15216;SDS011;7711;46.634;14.318;2023-10-13T02:50:54;21.23;;;9.70;;
15216;SDS011;7711;46.634;14.318;2023-10-13T02:53:23;18.90;;;9.87;;
15216;SDS011;7711;46.634;14.318;2023-10-13T02:55:53;12.77;;;8.60;;
15216;SDS011;7711;46.634;14.318;2023-10-13T02:58:25;15.10;;;9.13;;
15216;SDS011;7711;46.634;14.318;2023-10-13T03:01:04;21.20;;;10.03;;
15216;SDS011;7711;46.634;14.318;2023-10-13T03:03:42;19.60;;;9.17;;
15216;SDS011;7711;46.634;14.318;2023-10-13T03:06:12;20.67;;;9.77;;
15216;SDS011;7711;46.634;14.318;2023-10-13T03:08:40;14.90;;;9.40;;
15216;SDS011;7711;46.634;14.318;2023-10-13T03:11:08;12.87;;;9.10;;
15216;SDS011;7711;46.634;14.318;2023-10-13T03:13:38;20.47;;;10.17;;
15216;SDS011;7711;46.634;14.318;2023-10-13T03:16:12;14.20;;;9.20;;
15216;SDS011;7711;46.634;14.318;2023-10-13T03:18:43;16.13;;;9.60;;
15216;SDS011;7711;46.634;14.318;2023-10-13T03:21:19;15.83;;;9.87;;
15216;SDS011;7711;46.634;14.318;2023-10-13T03:23:58;17.43;;;9.90;;
15216;SDS011;7711;46.634;14.318;2023-10-13T03:26:31;16.07;;;10.37;;
15216;SDS011;7711;46.634;14.318;2023-10-13T03:29:04;17.50;;;10.03;;
15216;SDS011;7711;46.634;14.318;2023-10-13T03:31:33;17.53;;;11.33;;
15216;SDS011;7711;46.634;14.318;2023-10-13T03:34:03;20.10;;;11.40;;
15216;SDS011;7711;46.634;14.318;2023-10-13T03:36:31;15.03;;;9.93;;
15216;SDS011;7711;46.634;14.318;2023-10-13T03:39:22;19.43;;;10.73;;
15216;SDS011;7711;46.634;14.318;2023-10-13T03:41:54;13.70;;;10.43;;
15216;SDS011;7711;46.634;14.318;2023-10-13T03:44:23;13.00;;;8.83;;
15216;SDS011;7711;46.634;14.318;2023-10-13T03:46:55;15.83;;;9.53;;
15216;SDS011;7711;46.634;14.318;2023-10-13T03:49:24;14.30;;;8.90;;
15216;SDS011;7711;46.634;14.318;2023-10-13T03:51:54;13.70;;;9.13;;
15216;SDS011;7711;46.634;14.318;2023-10-13T03:54:22;17.50;;;9.40;;
15216;SDS011;7711;46.634;14.318;2023-10-13T03:56:49;14.43;;;9.17;;
15216;SDS011;7711;46.634;14.318;2023-10-13T03:59:22;17.07;;;10.17;;
15216;SDS011;7711;46.634;14.318;2023-10-13T04:02:00;19.37;;;9.83;;
15216;SDS011;7711;46.634;14.318;2023-10-13T04:04:31;18.07;;;10.47;;
15216;SDS011;7711;46.634;14.318;2023-10-13T04:07:07;13.57;;;8.80;;
15216;SDS011;7711;46.634;14.318;2023-10-13T04:10:00;11.20;;;8.07;;
15216;SDS011;7711;46.634;14.318;2023-10-13T04:12:59;14.00;;;8.77;;
15216;SDS011;7711;46.634;14.318;2023-10-13T04:15:45;10.77;;;7.83;;
15216;SDS011;7711;46.634;14.318;2023-10-13T04:18:26;19.83;;;8.90;;
15216;SDS011;7711;46.634;14.318;2023-10-13T04:20:59;15.13;;;8.97;;
15216;SDS011;7711;46.634;14.318;2023-10-13T04:23:43;13.17;;;8.33;;
15216;SDS011;7711;46.634;14.318;2023-10-13T04:26:24;13.07;;;8.60;;
15216;SDS011;7711;46.634;14.318;2023-10-13T04:29:01;18.87;;;8.93;;
15216;SDS011;7711;46.634;14.318;2023-10-13T04:31:37;15.77;;;9.37;;
15216;SDS011;7711;46.634;14.318;2023-10-13T04:34:20;12.10;;;9.30;;
15216;SDS011;7711;46.634;14.318;2023-10-13T04:36:53;14.70;;;9.63;;
15216;SDS011;7711;46.634;14.318;2023-10-13T04:39:36;14.10;;;9.47;;
15216;SDS011;7711;46.634;14.318;2023-10-13T04:42:05;14.37;;;10.07;;
15216;SDS011;7711;46.634;14.318;2023-10-13T04:44:38;16.87;;;11.20;;
15216;SDS011;7711;46.634;14.318;2023-10-13T04:47:19;18.77;;;11.13;;
15216;SDS011;7711;46.634;14.318;2023-10-13T04:49:46;17.27;;;11.40;;
15216;SDS011;7711;46.634;14.318;2023-10-13T04:52:17;18.07;;;11.57;;
15216;SDS011;7711;46.634;14.318;2023-10-13T04:55:14;19.73;;;12.27;;
15216;SDS011;7711;46.634;14.318;2023-10-13T04:58:02;19.63;;;12.60;;
15216;SDS011;7711;46.634;14.318;2023-10-13T05:00:40;21.23;;;12.80;;
15216;SDS011;7711;46.634;14.318;2023-10-13T05:03:25;22.23;;;12.20;;
15216;SDS011;7711;46.634;14.318;2023-10-13T05:06:08;16.40;;;11.37;;
15216;SDS011;7711;46.634;14.318;2023-10-13T05:08:59;16.33;;;10.80;;
15216;SDS011;7711;46.634;14.318;2023-10-13T05:11:44;15.60;;;11.33;;
15216;SDS011;7711;46.634;14.318;2023-10-13T05:14:28;21.27;;;11.43;;
15216;SDS011;7711;46.634;14.318;2023-10-13T05:17:12;14.97;;;10.43;;
15216;SDS011;7711;46.634;14.318;2023-10-13T05:19:58;19.23;;;10.97;;
15216;SDS011;7711;46.634;14.318;2023-10-13T05:22:42;16.00;;;10.83;;
15216;SDS011;7711;46.634;14.318;2023-10-13T05:25:26;27.10;;;12.30;;
15216;SDS011;7711;46.634;14.318;2023-10-13T05:28:10;28.60;;;12.87;;
15216;SDS011;7711;46.634;14.318;2023-10-13T05:30:54;31.57;;;12.27;;
15216;SDS011;7711;46.634;14.318;2023-10-13T05:33:57;20.17;;;11.50;;
15216;SDS011;7711;46.634;14.318;2023-10-13T05:36:43;19.93;;;12.20;;
15216;SDS011;7711;46.634;14.318;2023-10-13T05:39:29;17.53;;;10.77;;
15216;SDS011;7711;46.634;14.318;2023-10-13T05:42:13;16.17;;;11.17;;
15216;SDS011;7711;46.634;14.318;2023-10-13T05:44:57;21.83;;;10.53;;
15216;SDS011;7711;46.634;14.318;2023-10-13T05:47:49;18.67;;;11.00;;
15216;SDS011;7711;46.634;14.318;2023-10-13T05:50:27;14.87;;;10.13;;
15216;SDS011;7711;46.634;14.318;2023-10-13T05:53:11;15.97;;;9.67;;
15216;SDS011;7711;46.634;14.318;2023-10-13T05:55:59;17.47;;;9.60;;
15216;SDS011;7711;46.634;14.318;2023-10-13T05:58:44;19.30;;;12.60;;
15216;SDS011;7711;46.634;14.318;2023-10-13T06:01:29;17.93;;;11.60;;
15216;SDS011;7711;46.634;14.318;2023-10-13T06:04:13;18.90;;;12.50;;
15216;SDS011;7711;46.634;14.318;2023-10-13T06:06:59;19.17;;;11.87;;
15216;SDS011;7711;46.634;14.318;2023-10-13T06:09:45;22.30;;;11.23;;
15216;SDS011;7711;46.634;14.318;2023-10-13T06:12:29;21.97;;;11.50;;
15216;SDS011;7711;46.634;14.318;2023-10-13T06:15:13;18.83;;;11.93;;
15216;SDS011;7711;46.634;14.318;2023-10-13T06:17:58;18.00;;;10.73;;
15216;SDS011;7711;46.634;14.318;2023-10-13T06:20:42;16.03;;;8.60;;
15216;SDS011;7711;46.634;14.318;2023-10-13T06:23:26;16.73;;;8.80;;
15216;SDS011;7711;46.634;14.318;2023-10-13T06:26:11;14.20;;;8.67;;
15216;SDS011;7711;46.634;14.318;2023-10-13T06:28:56;14.53;;;9.23;;
15216;SDS011;7711;46.634;14.318;2023-10-13T06:31:23;16.33;;;9.47;;
15216;SDS011;7711;46.634;14.318;2023-10-13T06:33:51;14.93;;;9.70;;
15216;SDS011;7711;46.634;14.318;2023-10-13T06:36:20;13.93;;;9.53;;
15216;SDS011;7711;46.634;14.318;2023-10-13T06:38:47;15.07;;;9.43;;
15216;SDS011;7711;46.634;14.318;2023-10-13T06:41:21;14.50;;;8.90;;
15216;SDS011;7711;46.634;14.318;2023-10-13T06:43:55;13.70;;;8.97;;
15216;SDS011;7711;46.634;14.318;2023-10-13T06:46:28;14.03;;;8.30;;
15216;SDS011;7711;46.634;14.318;2023-10-13T06:48:59;15.50;;;9.02;;
15216;SDS011;7711;46.634;14.318;2023-10-13T06:51:27;17.23;;;8.20;;
15216;SDS011;7711;46.634;14.318;2023-10-13T06:54:03;14.88;;;9.25;;
15216;SDS011;7711;46.634;14.318;2023-10-13T06:56:36;16.25;;;9.18;;
15216;SDS011;7711;46.634;14.318;2023-10-13T06:59:05;16.60;;;10.02;;
15216;SDS011;7711;46.634;14.318;2023-10-13T07:01:32;16.88;;;9.65;;
15216;SDS011;7711;46.634;14.318;2023-10-13T07:04:04;13.45;;;8.82;;
15216;SDS011;7711;46.634;14.318;2023-10-13T07:06:38;17.50;;;8.90;;
15216;SDS011;7711;46.634;14.318;2023-10-13T07:09:07;13.23;;;9.38;;
15216;SDS011;7711;46.634;14.318;2023-10-13T07:11:46;20.60;;;10.55;;
15216;SDS011;7711;46.634;14.318;2023-10-13T07:14:17;19.67;;;11.57;;
15216;SDS011;7711;46.634;14.318;2023-10-13T07:16:54;22.15;;;12.63;;
15216;SDS011;7711;46.634;14.318;2023-10-13T07:19:23;24.05;;;12.02;;
15216;SDS011;7711;46.634;14.318;2023-10-13T07:21:53;20.98;;;11.90;;
15216;SDS011;7711;46.634;14.318;2023-10-13T07:24:23;20.38;;;12.13;;
15216;SDS011;7711;46.634;14.318;2023-10-13T07:26:54;17.30;;;11.52;;
15216;SDS011;7711;46.634;14.318;2023-10-13T07:29:28;17.10;;;11.57;;
15216;SDS011;7711;46.634;14.318;2023-10-13T07:31:56;16.73;;;11.43;;
15216;SDS011;7711;46.634;14.318;2023-10-13T07:34:23;15.45;;;10.57;;
15216;SDS011;7711;46.634;14.318;2023-10-13T07:36:52;17.95;;;11.88;;
15216;SDS011;7711;46.634;14.318;2023-10-13T07:39:24;15.68;;;10.80;;
15216;SDS011;7711;46.634;14.318;2023-10-13T07:41:51;17.98;;;10.63;;
15216;SDS011;7711;46.634;14.318;2023-10-13T07:44:30;14.50;;;10.68;;
15216;SDS011;7711;46.634;14.318;2023-10-13T07:46:58;15.05;;;10.65;;
15216;SDS011;7711;46.634;14.318;2023-10-13T07:49:28;14.82;;;10.40;;
15216;SDS011;7711;46.634;14.318;2023-10-13T07:52:02;14.32;;;10.45;;
15216;SDS011;7711;46.634;14.318;2023-10-13T07:54:43;14.65;;;9.20;;
15216;SDS011;7711;46.634;14.318;2023-10-13T07:57:12;17.70;;;10.15;;
15216;SDS011;7711;46.634;14.318;2023-10-13T07:59:42;16.38;;;9.48;;
15216;SDS011;7711;46.634;14.318;2023-10-13T08:02:17;15.38;;;9.48;;
15216;SDS011;7711;46.634;14.318;2023-10-13T08:04:58;15.93;;;9.40;;
15216;SDS011;7711;46.634;14.318;2023-10-13T08:07:25;17.50;;;9.18;;
15216;SDS011;7711;46.634;14.318;2023-10-13T08:09:53;16.40;;;9.73;;
15216;SDS011;7711;46.634;14.318;2023-10-13T08:12:22;18.20;;;10.18;;
15216;SDS011;7711;46.634;14.318;2023-10-13T08:14:51;16.05;;;9.68;;
15216;SDS011;7711;46.634;14.318;2023-10-13T08:17:36;14.55;;;9.23;;
15216;SDS011;7711;46.634;14.318;2023-10-13T08:20:09;14.55;;;9.02;;
15216;SDS011;7711;46.634;14.318;2023-10-13T08:22:37;13.70;;;8.95;;
15216;SDS011;7711;46.634;14.318;2023-10-13T08:25:07;15.25;;;8.93;;
15216;SDS011;7711;46.634;14.318;2023-10-13T08:28:11;14.52;;;9.20;;
15216;SDS011;7711;46.634;14.318;2023-10-13T08:30:56;17.58;;;9.55;;
15216;SDS011;7711;46.634;14.318;2023-10-13T08:33:23;13.75;;;8.25;;
15216;SDS011;7711;46.634;14.318;2023-10-13T08:35:52;16.30;;;9.05;;
15216;SDS011;7711;46.634;14.318;2023-10-13T08:38:43;15.02;;;8.57;;
15216;SDS011;7711;46.634;14.318;2023-10-13T08:41:17;15.07;;;8.23;;
15216;SDS011;7711;46.634;14.318;2023-10-13T08:44:01;13.65;;;9.10;;
15216;SDS011;7711;46.634;14.318;2023-10-13T08:46:31;13.73;;;8.23;;
15216;SDS011;7711;46.634;14.318;2023-10-13T08:49:17;13.90;;;9.10;;
15216;SDS011;7711;46.634;14.318;2023-10-13T08:51:48;12.93;;;8.75;;
15216;SDS011;7711;46.634;14.318;2023-10-13T08:54:30;10.70;;;7.95;;
15216;SDS011;7711;46.634;14.318;2023-10-13T08:57:00;16.85;;;8.25;;
15216;SDS011;7711;46.634;14.318;2023-10-13T08:59:45;16.85;;;8.55;;
15216;SDS011;7711;46.634;14.318;2023-10-13T09:02:22;14.40;;;8.40;;
15216;SDS011;7711;46.634;14.318;2023-10-13T09:05:09;10.38;;;7.75;;
15216;SDS011;7711;46.634;14.318;2023-10-13T09:07:56;14.57;;;8.63;;
15216;SDS011;7711;46.634;14.318;2023-10-13T09:10:33;12.85;;;8.00;;
15216;SDS011;7711;46.634;14.318;2023-10-13T09:12:59;18.45;;;8.77;;
15216;SDS011;7711;46.634;14.318;2023-10-13T09:15:36;13.10;;;8.38;;
15216;SDS011;7711;46.634;14.318;2023-10-13T09:18:25;12.98;;;8.27;;
15216;SDS011;7711;46.634;14.318;2023-10-13T09:21:06;13.98;;;8.00;;
15216;SDS011;7711;46.634;14.318;2023-10-13T09:23:55;11.55;;;7.63;;
15216;SDS011;7711;46.634;14.318;2023-10-13T09:26:42;12.48;;;8.15;;
15216;SDS011;7711;46.634;14.318;2023-10-13T09:29:16;13.82;;;8.68;;
15216;SDS011;7711;46.634;14.318;2023-10-13T09:31:45;12.07;;;7.80;;
15216;SDS011;7711;46.634;14.318;2023-10-13T09:34:20;12.65;;;7.88;;
15216;SDS011;7711;46.634;14.318;2023-10-13T09:36:48;11.30;;;8.48;;
15216;SDS011;7711;46.634;14.318;2023-10-13T09:39:21;12.02;;;8.35;;
15216;SDS011;7711;46.634;14.318;2023-10-13T09:42:06;20.10;;;8.80;;
15216;SDS011;7711;46.634;14.318;2023-10-13T09:44:35;16.17;;;8.98;;
15216;SDS011;7711;46.634;14.318;2023-10-13T09:47:07;15.63;;;9.00;;
15216;SDS011;7711;46.634;14.318;2023-10-13T09:49:44;18.60;;;8.98;;
15216;SDS011;7711;46.634;14.318;2023-10-13T09:52:13;17.42;;;9.30;;
15216;SDS011;7711;46.634;14.318;2023-10-13T09:54:51;13.38;;;8.15;;
15216;SDS011;7711;46.634;14.318;2023-10-13T09:57:38;14.82;;;9.27;;
15216;SDS011;7711;46.634;14.318;2023-10-13T10:00:11;16.08;;;9.07;;
15216;SDS011;7711;46.634;14.318;2023-10-13T10:03:07;11.00;;;8.38;;
15216;SDS011;7711;46.634;14.318;2023-10-13T10:05:55;13.82;;;8.73;;
15216;SDS011;7711;46.634;14.318;2023-10-13T10:08:28;14.65;;;8.02;;
15216;SDS011;7711;46.634;14.318;2023-10-13T10:11:15;10.90;;;6.80;;
15216;SDS011;7711;46.634;14.318;2023-10-13T10:14:07;11.77;;;7.28;;
15216;SDS011;7711;46.634;14.318;2023-10-13T10:16:44;11.20;;;7.30;;
15216;SDS011;7711;46.634;14.318;2023-10-13T10:19:19;9.88;;;7.15;;
15216;SDS011;7711;46.634;14.318;2023-10-13T10:21:47;11.93;;;7.05;;
15216;SDS011;7711;46.634;14.318;2023-10-13T10:24:16;12.88;;;7.43;;
15216;SDS011;7711;46.634;14.318;2023-10-13T10:26:55;15.85;;;8.00;;
15216;SDS011;7711;46.634;14.318;2023-10-13T10:29:22;14.13;;;7.18;;
15216;SDS011;7711;46.634;14.318;2023-10-13T10:31:49;9.90;;;6.90;;
15216;SDS011;7711;46.634;14.318;2023-10-13T10:34:16;10.45;;;6.93;;
15216;SDS011;7711;46.634;14.318;2023-10-13T10:36:53;14.18;;;7.13;;
15216;SDS011;7711;46.634;14.318;2023-10-13T10:39:20;15.95;;;7.75;;
15216;SDS011;7711;46.634;14.318;2023-10-13T10:42:07;16.55;;;7.47;;
15216;SDS011;7711;46.634;14.318;2023-10-13T10:44:40;14.55;;;7.72;;
15216;SDS011;7711;46.634;14.318;2023-10-13T10:47:09;14.82;;;7.75;;
15216;SDS011;7711;46.634;14.318;2023-10-13T10:49:44;12.75;;;6.78;;
15216;SDS011;7711;46.634;14.318;2023-10-13T10:52:16;11.93;;;7.25;;
15216;SDS011;7711;46.634;14.318;2023-10-13T10:54:44;12.32;;;7.35;;
15216;SDS011;7711;46.634;14.318;2023-10-13T10:57:17;12.57;;;7.20;;
15216;SDS011;7711;46.634;14.318;2023-10-13T10:59:44;12.85;;;7.18;;
15216;SDS011;7711;46.634;14.318;2023-10-13T11:02:11;12.23;;;6.85;;
15216;SDS011;7711;46.634;14.318;2023-10-13T11:04:43;15.38;;;6.75;;
15216;SDS011;7711;46.634;14.318;2023-10-13T11:07:27;13.35;;;6.63;;
15216;SDS011;7711;46.634;14.318;2023-10-13T11:09:55;12.70;;;6.75;;
15216;SDS011;7711;46.634;14.318;2023-10-13T11:12:32;13.30;;;7.00;;
15216;SDS011;7711;46.634;14.318;2023-10-13T11:15:00;10.63;;;6.70;;
15216;SDS011;7711;46.634;14.318;2023-10-13T11:17:30;13.77;;;7.30;;
15216;SDS011;7711;46.634;14.318;2023-10-13T11:20:10;10.70;;;7.03;;
15216;SDS011;7711;46.634;14.318;2023-10-13T11:22:46;13.25;;;7.20;;
15216;SDS011;7711;46.634;14.318;2023-10-13T11:25:22;15.75;;;7.47;;
15216;SDS011;7711;46.634;14.318;2023-10-13T11:27:54;15.63;;;6.63;;
15216;SDS011;7711;46.634;14.318;2023-10-13T11:30:23;12.32;;;7.07;;
15216;SDS011;7711;46.634;14.318;2023-10-13T11:32:58;12.75;;;7.93;;
15216;SDS011;7711;46.634;14.318;2023-10-13T11:35:26;12.43;;;6.93;;
15216;SDS011;7711;46.634;14.318;2023-10-13T11:38:15;14.68;;;7.07;;
15216;SDS011;7711;46.634;14.318;2023-10-13T11:40:50;11.63;;;7.82;;
15216;SDS011;7711;46.634;14.318;2023-10-13T11:43:38;12.25;;;6.93;;
15216;SDS011;7711;46.634;14.318;2023-10-13T11:46:37;10.98;;;7.30;;
15216;SDS011;7711;46.634;14.318;2023-10-13T11:49:21;13.77;;;7.20;;
15216;SDS011;7711;46.634;14.318;2023-10-13T11:52:02;12.55;;;7.20;;
15216;SDS011;7711;46.634;14.318;2023-10-13T11:54:42;11.07;;;7.00;;
15216;SDS011;7711;46.634;14.318;2023-10-13T11:57:09;11.07;;;6.90;;
15216;SDS011;7711;46.634;14.318;2023-10-13T11:59:36;13.07;;;7.20;;
15216;SDS011;7711;46.634;14.318;2023-10-13T12:02:12;15.52;;;7.28;;
15216;SDS011;7711;46.634;14.318;2023-10-13T12:04:56;11.52;;;7.10;;
15216;SDS011;7711;46.634;14.318;2023-10-13T12:07:24;10.63;;;7.78;;
15216;SDS011;7711;46.634;14.318;2023-10-13T12:10:11;15.75;;;7.25;;
15216;SDS011;7711;46.634;14.318;2023-10-13T12:12:45;10.75;;;6.70;;
15216;SDS011;7711;46.634;14.318;2023-10-13T12:15:18;12.10;;;6.60;;
15216;SDS011;7711;46.634;14.318;2023-10-13T12:18:02;13.25;;;7.03;;
15216;SDS011;7711;46.634;14.318;2023-10-13T12:20:30;13.70;;;7.28;;
15216;SDS011;7711;46.634;14.318;2023-10-13T12:23:00;12.57;;;6.75;;
15216;SDS011;7711;46.634;14.318;2023-10-13T12:25:41;10.25;;;6.45;;
15216;SDS011;7711;46.634;14.318;2023-10-13T12:28:22;10.55;;;7.05;;
15216;SDS011;7711;46.634;14.318;2023-10-13T12:30:52;11.82;;;7.10;;
15216;SDS011;7711;46.634;14.318;2023-10-13T12:33:22;17.92;;;6.85;;
15216;SDS011;7711;46.634;14.318;2023-10-13T12:35:55;12.27;;;6.57;;
15216;SDS011;7711;46.634;14.318;2023-10-13T12:38:45;12.93;;;6.90;;
15216;SDS011;7711;46.634;14.318;2023-10-13T12:41:41;10.05;;;7.18;;
15216;SDS011;7711;46.634;14.318;2023-10-13T12:44:37;8.95;;;6.65;;
15216;SDS011;7711;46.634;14.318;2023-10-13T12:47:21;11.45;;;6.35;;
15216;SDS011;7711;46.634;14.318;2023-10-13T12:50:05;11.55;;;6.25;;
15216;SDS011;7711;46.634;14.318;2023-10-13T12:52:48;13.25;;;6.53;;
15216;SDS011;7711;46.634;14.318;2023-10-13T12:55:15;12.70;;;6.78;;
15216;SDS011;7711;46.634;14.318;2023-10-13T12:57:47;11.93;;;6.57;;
15216;SDS011;7711;46.634;14.318;2023-10-13T13:00:14;11.43;;;6.57;;
15216;SDS011;7711;46.634;14.318;2023-10-13T13:02:51;11.98;;;6.63;;
15216;SDS011;7711;46.634;14.318;2023-10-13T13:05:20;14.05;;;6.97;;
15216;SDS011;7711;46.634;14.318;2023-10-13T13:07:53;11.57;;;6.45;;
15216;SDS011;7711;46.634;14.318;2023-10-13T13:10:21;12.70;;;6.43;;
15216;SDS011;7711;46.634;14.318;2023-10-13T13:13:01;11.20;;;6.15;;
15216;SDS011;7711;46.634;14.318;2023-10-13T13:15:29;10.68;;;6.75;;
15216;SDS011;7711;46.634;14.318;2023-10-13T13:17:56;12.38;;;6.60;;
15216;SDS011;7711;46.634;14.318;2023-10-13T13:20:23;9.82;;;6.32;;
15216;SDS011;7711;46.634;14.318;2023-10-13T13:22:54;13.27;;;6.43;;
15216;SDS011;7711;46.634;14.318;2023-10-13T13:25:27;9.77;;;6.28;;
15216;SDS011;7711;46.634;14.318;2023-10-13T13:27:57;8.50;;;6.03;;
15216;SDS011;7711;46.634;14.318;2023-10-13T13:30:31;8.95;;;5.95;;
15216;SDS011;7711;46.634;14.318;2023-10-13T13:33:00;13.50;;;6.38;;
15216;SDS011;7711;46.634;14.318;2023-10-13T13:35:36;14.55;;;6.90;;
15216;SDS011;7711;46.634;14.318;2023-10-13T13:38:03;10.07;;;6.32;;
15216;SDS011;7711;46.634;14.318;2023-10-13T13:40:36;10.93;;;5.75;;
15216;SDS011;7711;46.634;14.318;2023-10-13T13:43:04;11.32;;;5.95;;
15216;SDS011;7711;46.634;14.318;2023-10-13T13:45:33;12.23;;;6.00;;
15216;SDS011;7711;46.634;14.318;2023-10-13T13:48:06;10.23;;;6.32;;
15216;SDS011;7711;46.634;14.318;2023-10-13T13:50:40;8.88;;;6.05;;
15216;SDS011;7711;46.634;14.318;2023-10-13T13:53:09;11.57;;;6.45;;
15216;SDS011;7711;46.634;14.318;2023-10-13T13:55:36;11.60;;;6.40;;
15216;SDS011;7711;46.634;14.318;2023-10-13T13:58:05;11.63;;;6.50;;
15216;SDS011;7711;46.634;14.318;2023-10-13T14:00:35;12.35;;;6.57;;
15216;SDS011;7711;46.634;14.318;2023-10-13T14:03:08;8.93;;;5.70;;
15216;SDS011;7711;46.634;14.318;2023-10-13T14:05:49;8.50;;;5.90;;
15216;SDS011;7711;46.634;14.318;2023-10-13T14:08:16;8.32;;;6.40;;
15216;SDS011;7711;46.634;14.318;2023-10-13T14:10:43;11.80;;;6.93;;
15216;SDS011;7711;46.634;14.318;2023-10-13T14:13:27;11.52;;;6.75;;
15216;SDS011;7711;46.634;14.318;2023-10-13T14:16:15;7.72;;;5.80;;
15216;SDS011;7711;46.634;14.318;2023-10-13T14:18:45;10.07;;;6.22;;
15216;SDS011;7711;46.634;14.318;2023-10-13T14:21:14;8.32;;;6.25;;
15216;SDS011;7711;46.634;14.318;2023-10-13T14:23:43;13.52;;;6.32;;
15216;SDS011;7711;46.634;14.318;2023-10-13T14:26:18;13.30;;;6.50;;
15216;SDS011;7711;46.634;14.318;2023-10-13T14:28:46;13.68;;;7.28;;
15216;SDS011;7711;46.634;14.318;2023-10-13T14:31:18;14.43;;;6.88;;
15216;SDS011;7711;46.634;14.318;2023-10-13T14:33:47;18.52;;;7.30;;
15216;SDS011;7711;46.634;14.318;2023-10-13T14:36:14;13.85;;;6.30;;
15216;SDS011;7711;46.634;14.318;2023-10-13T14:38:45;12.77;;;6.70;;
15216;SDS011;7711;46.634;14.318;2023-10-13T14:41:15;10.98;;;6.40;;
15216;SDS011;7711;46.634;14.318;2023-10-13T14:43:43;13.05;;;6.60;;
15216;SDS011;7711;46.634;14.318;2023-10-13T14:46:13;11.68;;;6.50;;
15216;SDS011;7711;46.634;14.318;2023-10-13T14:48:42;10.85;;;6.70;;
15216;SDS011;7711;46.634;14.318;2023-10-13T14:51:10;15.57;;;6.75;;
15216;SDS011;7711;46.634;14.318;2023-10-13T14:53:38;9.05;;;5.82;;
15216;SDS011;7711;46.634;14.318;2023-10-13T14:56:09;10.60;;;6.28;;
15216;SDS011;7711;46.634;14.318;2023-10-13T14:58:37;9.80;;;6.20;;
15216;SDS011;7711;46.634;14.318;2023-10-13T15:01:10;14.30;;;6.50;;
15216;SDS011;7711;46.634;14.318;2023-10-13T15:03:40;15.25;;;6.43;;
15216;SDS011;7711;46.634;14.318;2023-10-13T15:06:14;14.10;;;6.45;;
15216;SDS011;7711;46.634;14.318;2023-10-13T15:08:42;12.50;;;6.03;;
15216;SDS011;7711;46.634;14.318;2023-10-13T15:11:11;9.45;;;6.68;;
15216;SDS011;7711;46.634;14.318;2023-10-13T15:13:39;12.35;;;6.28;;
15216;SDS011;7711;46.634;14.318;2023-10-13T15:16:13;10.90;;;6.35;;